createdAt,value
2023-01-28T00:07:27.610Z,4.10
2023-01-28T00:17:30.318Z,4.70
2023-01-28T00:27:32.857Z,4.37
2023-01-28T00:37:36.852Z,4.27
2023-01-28T00:47:39.127Z,4.67
2023-01-28T00:57:41.293Z,4.47
2023-01-28T01:07:44.936Z,5.80
2023-01-28T01:17:48.621Z,5.07
2023-01-28T01:27:50.825Z,5.90
2023-01-28T01:37:53.651Z,4.33
2023-01-28T01:48:01.771Z,4.07
2023-01-28T01:58:08.176Z,3.70
2023-01-28T02:08:22.327Z,4.13
2023-01-28T02:18:24.476Z,4.57
2023-01-28T02:28:29.678Z,4.37
2023-01-28T02:38:36.394Z,4.10
2023-01-28T02:48:39.170Z,4.53
2023-01-28T02:59:26.692Z,3.97
2023-01-28T03:09:32.148Z,3.20
2023-01-28T03:19:52.902Z,3.70
2023-01-28T03:30:16.156Z,3.27
2023-01-28T03:40:19.543Z,5.23
2023-01-28T03:50:22.019Z,4.33
2023-01-28T04:00:31.054Z,5.43
2023-01-28T04:10:33.378Z,6.77
2023-01-28T04:20:49.921Z,7.10
2023-01-28T04:30:54.539Z,5.20
2023-01-28T04:41:19.836Z,5.53
2023-01-28T04:51:22.575Z,5.23
2023-01-28T05:01:43.446Z,5.17
2023-01-28T05:11:46.529Z,7.00
2023-01-28T05:21:50.246Z,8.13
2023-01-28T05:32:18.686Z,7.50
2023-01-28T05:42:22.577Z,7.57
2023-01-28T05:52:30.551Z,8.50
2023-01-28T06:02:33.349Z,7.43
2023-01-28T06:12:36.104Z,7.57
2023-01-28T06:23:01.245Z,7.40
2023-01-28T06:33:04.435Z,6.27
2023-01-28T06:43:07.033Z,5.37
2023-01-28T06:53:11.384Z,5.63
2023-01-28T07:03:14.538Z,5.67
2023-01-28T07:13:16.908Z,4.17
2023-01-28T07:23:19.086Z,3.77
2023-01-28T07:33:21.587Z,3.97
2023-01-28T07:43:24.007Z,4.13
2023-01-28T07:53:26.351Z,3.93
2023-01-28T08:03:28.728Z,4.20
2023-01-28T08:13:30.909Z,4.30
2023-01-28T08:23:34.698Z,3.63
2023-01-28T08:33:36.958Z,5.90
2023-01-28T08:43:39.268Z,5.07
2023-01-28T08:53:41.699Z,3.80
2023-01-28T09:03:43.845Z,4.37
2023-01-28T09:13:46.061Z,6.10
2023-01-28T09:23:48.314Z,9.60
2023-01-28T09:33:56.629Z,12.87
2023-01-28T09:44:27.386Z,12.17
2023-01-28T09:54:44.124Z,9.07
2023-01-28T10:05:04.635Z,7.03
2023-01-28T10:15:28.118Z,7.67
2023-01-28T10:25:31.769Z,9.10
2023-01-28T10:35:43.836Z,12.20
2023-01-28T10:45:58.206Z,10.77
2023-01-28T10:56:01.421Z,14.83
2023-01-28T11:06:04.068Z,14.73
2023-01-28T11:16:15.089Z,12.07
2023-01-28T11:26:38.352Z,7.87
2023-01-28T11:36:51.571Z,7.10
2023-01-28T11:47:18.863Z,6.30
2023-01-28T11:57:29.625Z,8.50
2023-01-28T12:07:43.884Z,7.70
2023-01-28T12:17:53.954Z,7.07
2023-01-28T12:28:12.505Z,9.20
2023-01-28T12:38:36.701Z,12.00
2023-01-28T12:48:45.461Z,10.07
2023-01-28T12:58:53.810Z,9.60
2023-01-28T13:09:14.620Z,9.13
2023-01-28T13:19:20.129Z,8.43
2023-01-28T13:29:32.891Z,8.43
2023-01-28T13:39:37.203Z,9.80
2023-01-28T13:49:42.694Z,10.10
2023-01-28T14:00:03.005Z,9.43
2023-01-28T14:10:35.089Z,9.77
2023-01-28T14:20:44.975Z,10.00
2023-01-28T14:30:54.749Z,10.37
2023-01-28T14:41:01.015Z,21.40
2023-01-28T14:51:44.099Z,14.40
2023-01-28T15:01:48.068Z,11.00
2023-01-28T15:11:53.956Z,19.57
2023-01-28T15:21:58.059Z,18.30
2023-01-28T15:32:01.282Z,16.57
2023-01-28T15:42:06.158Z,27.90
2023-01-28T15:52:08.969Z,12.77
2023-01-28T16:02:22.053Z,11.30
2023-01-28T16:12:27.238Z,15.80
2023-01-28T16:22:38.304Z,15.83
2023-01-28T16:32:42.576Z,17.70
2023-01-28T16:42:45.992Z,13.50
2023-01-28T16:52:50.327Z,14.10
2023-01-28T17:02:54.015Z,17.10
2023-01-28T17:12:56.324Z,16.23
2023-01-28T17:22:59.449Z,14.60
2023-01-28T17:33:01.640Z,19.43
2023-01-28T17:43:04.855Z,26.37
2023-01-28T17:53:06.974Z,30.10
2023-01-28T18:03:12.414Z,25.50
2023-01-28T18:13:14.744Z,26.60
2023-01-28T18:23:16.924Z,28.83
2023-01-28T18:33:19.995Z,27.60
2023-01-28T18:43:22.318Z,26.37
2023-01-28T18:53:26.133Z,26.17
2023-01-28T19:03:28.365Z,28.40
2023-01-28T19:13:31.887Z,27.93
2023-01-28T19:23:49.301Z,25.83
2023-01-28T19:33:58.647Z,25.60
2023-01-28T19:44:00.946Z,21.03
2023-01-28T19:54:03.148Z,22.73
2023-01-28T20:04:05.572Z,20.90
2023-01-28T20:14:08.943Z,17.70
2023-01-28T20:24:12.473Z,20.67
2023-01-28T20:34:19.577Z,19.03
2023-01-28T20:44:22.104Z,20.33
2023-01-28T20:54:25.654Z,22.37
2023-01-28T21:04:27.927Z,19.30
2023-01-28T21:14:30.296Z,16.73
2023-01-28T21:24:32.649Z,19.47
2023-01-28T21:34:35.026Z,20.53
2023-01-28T21:44:37.213Z,18.90
2023-01-28T21:54:39.433Z,18.73
2023-01-28T22:04:43.911Z,17.80
2023-01-28T22:14:48.395Z,17.40
2023-01-28T22:24:50.622Z,18.10
2023-01-28T22:34:52.962Z,18.83
2023-01-28T22:44:55.132Z,18.43
2023-01-28T22:54:57.331Z,18.03
2023-01-28T23:04:59.591Z,18.97
2023-01-28T23:15:20.424Z,17.77
2023-01-28T23:25:23.311Z,18.93
2023-01-28T23:35:26.067Z,21.03
2023-01-28T23:45:28.200Z,19.20
2023-01-28T23:55:30.495Z,18.63
